createdAt,value
2019-03-22T00:00:36.127Z,1.67
2019-03-22T00:03:05.057Z,1.72
2019-03-22T00:05:33.931Z,1.98
2019-03-22T00:08:02.807Z,2.20
2019-03-22T00:10:31.731Z,2.00
2019-03-22T00:13:00.604Z,1.95
2019-03-22T00:15:29.492Z,2.08
2019-03-22T00:18:00.113Z,2.50
2019-03-22T00:20:30.095Z,2.05
2019-03-22T00:22:59.010Z,1.90
2019-03-22T00:25:27.943Z,2.52
2019-03-22T00:27:56.836Z,2.42
2019-03-22T00:30:26.294Z,2.40
2019-03-22T00:32:55.165Z,2.85
2019-03-22T00:35:24.067Z,2.55
2019-03-22T00:37:52.998Z,2.10
2019-03-22T00:40:22.075Z,2.50
2019-03-22T00:42:50.945Z,2.70
2019-03-22T00:45:20.248Z,1.90
2019-03-22T00:47:49.126Z,2.50
2019-03-22T00:50:18.020Z,2.40
2019-03-22T00:52:46.928Z,2.22
2019-03-22T00:55:15.802Z,2.12
2019-03-22T00:57:44.717Z,2.00
2019-03-22T01:00:15.043Z,2.20
2019-03-22T01:02:44.014Z,2.58
2019-03-22T01:05:12.983Z,2.10
2019-03-22T01:07:44.707Z,2.72
2019-03-22T01:10:15.222Z,2.27
2019-03-22T01:12:44.154Z,2.10
2019-03-22T01:15:14.656Z,2.27
2019-03-22T01:17:43.583Z,2.85
2019-03-22T01:20:13.373Z,2.80
2019-03-22T01:22:42.251Z,3.17
2019-03-22T01:25:12.183Z,2.87
2019-03-22T01:27:41.592Z,2.60
2019-03-22T01:30:18.511Z,2.58
2019-03-22T01:32:47.480Z,2.60
2019-03-22T01:35:16.478Z,2.52
2019-03-22T01:37:45.366Z,1.90
2019-03-22T01:40:17.361Z,2.60
2019-03-22T01:42:46.423Z,2.40
2019-03-22T01:45:16.597Z,2.62
2019-03-22T01:47:45.636Z,3.02
2019-03-22T01:50:16.417Z,1.95
2019-03-22T01:52:45.307Z,2.58
2019-03-22T01:55:14.355Z,2.75
2019-03-22T01:57:52.305Z,2.40
2019-03-22T02:00:15.546Z,2.30
2019-03-22T02:02:44.586Z,2.50
2019-03-22T02:05:13.485Z,2.17
2019-03-22T02:07:42.502Z,2.33
2019-03-22T02:10:12.791Z,2.12
2019-03-22T02:12:41.696Z,2.83
2019-03-22T02:15:15.648Z,3.30
2019-03-22T02:17:44.720Z,2.97
2019-03-22T02:20:15.524Z,3.02
2019-03-22T02:22:44.551Z,3.35
2019-03-22T02:25:13.821Z,3.58
2019-03-22T02:27:43.722Z,3.70
2019-03-22T02:30:17.693Z,3.33
2019-03-22T02:32:46.596Z,3.10
2019-03-22T02:35:27.640Z,3.55
2019-03-22T02:37:46.046Z,4.15
2019-03-22T02:40:15.141Z,3.62
2019-03-22T02:42:44.539Z,4.30
2019-03-22T02:45:15.373Z,3.87
2019-03-22T02:47:44.255Z,4.85
2019-03-22T02:50:19.701Z,5.75
2019-03-22T02:52:46.233Z,4.65
2019-03-22T02:55:15.694Z,5.15
2019-03-22T02:57:44.606Z,5.05
2019-03-22T03:00:16.273Z,4.60
2019-03-22T03:02:45.229Z,4.70
2019-03-22T03:05:15.724Z,4.60
2019-03-22T03:07:44.781Z,4.62
2019-03-22T03:10:17.169Z,4.90
2019-03-22T03:12:46.643Z,5.08
2019-03-22T03:15:17.775Z,4.08
2019-03-22T03:17:46.783Z,4.00
2019-03-22T03:20:16.903Z,3.92
2019-03-22T03:22:45.770Z,4.72
2019-03-22T03:25:16.018Z,4.30
2019-03-22T03:27:45.434Z,4.35
2019-03-22T03:30:19.156Z,4.67
2019-03-22T03:32:48.399Z,4.50
2019-03-22T03:35:17.753Z,4.62
2019-03-22T03:37:46.643Z,4.17
2019-03-22T03:40:17.436Z,3.80
2019-03-22T03:42:46.471Z,4.00
2019-03-22T03:45:33.513Z,3.83
2019-03-22T03:48:03.916Z,3.55
2019-03-22T03:50:32.915Z,5.22
2019-03-22T03:53:01.793Z,4.20
2019-03-22T03:55:30.802Z,4.12
2019-03-22T03:57:59.684Z,4.78
2019-03-22T04:00:28.567Z,4.58
2019-03-22T04:02:57.524Z,4.97
2019-03-22T04:05:26.535Z,4.83
2019-03-22T04:07:55.410Z,3.67
2019-03-22T04:10:24.612Z,3.58
2019-03-22T04:12:53.532Z,3.62
2019-03-22T04:15:22.447Z,4.08
2019-03-22T04:17:51.386Z,3.27
2019-03-22T04:20:20.834Z,3.50
2019-03-22T04:22:49.769Z,4.20
2019-03-22T04:25:18.790Z,4.00
2019-03-22T04:27:47.674Z,3.67
2019-03-22T04:30:16.666Z,4.10
2019-03-22T04:32:45.603Z,3.42
2019-03-22T04:35:14.577Z,3.85
2019-03-22T04:37:43.455Z,2.62
2019-03-22T04:40:26.516Z,3.27
2019-03-22T04:42:56.052Z,2.75
2019-03-22T04:45:28.219Z,3.40
2019-03-22T04:48:02.938Z,2.85
2019-03-22T04:50:34.896Z,2.27
2019-03-22T04:53:05.132Z,3.12
2019-03-22T04:55:35.616Z,2.58
2019-03-22T04:58:05.151Z,2.37
2019-03-22T05:00:36.011Z,2.75
2019-03-22T05:03:06.571Z,1.90
2019-03-22T05:05:35.582Z,1.95
2019-03-22T05:08:05.488Z,2.15
2019-03-22T05:10:36.689Z,1.87
2019-03-22T05:13:08.538Z,1.70
2019-03-22T05:15:38.819Z,1.95
2019-03-22T05:18:08.505Z,1.80
2019-03-22T05:20:39.376Z,1.52
2019-03-22T05:23:09.851Z,1.60
2019-03-22T05:25:39.799Z,1.30
2019-03-22T05:28:11.932Z,1.32
2019-03-22T05:30:46.594Z,1.35
2019-03-22T05:33:15.508Z,1.40
2019-03-22T05:35:44.418Z,1.15
2019-03-22T05:38:13.386Z,1.42
2019-03-22T05:40:42.434Z,1.30
2019-03-22T05:43:11.436Z,1.10
2019-03-22T05:45:40.572Z,1.10
2019-03-22T05:48:09.483Z,1.15
2019-03-22T05:50:38.520Z,1.20
2019-03-22T05:53:07.413Z,1.10
2019-03-22T05:55:36.297Z,1.40
2019-03-22T05:58:05.233Z,1.05
2019-03-22T06:00:34.326Z,1.20
2019-03-22T06:03:03.216Z,1.25
2019-03-22T06:05:32.171Z,1.42
2019-03-22T06:08:01.048Z,1.20
2019-03-22T06:10:30.074Z,1.30
2019-03-22T06:12:59.001Z,1.10
2019-03-22T06:15:28.684Z,1.10
2019-03-22T06:17:57.543Z,1.35
2019-03-22T06:20:26.678Z,1.30
2019-03-22T06:22:55.548Z,1.35
2019-03-22T06:25:24.487Z,1.10
2019-03-22T06:27:53.424Z,1.00
2019-03-22T06:30:22.324Z,1.67
2019-03-22T06:32:51.177Z,1.20
2019-03-22T06:35:20.216Z,1.27
2019-03-22T06:37:49.086Z,1.62
2019-03-22T06:40:17.977Z,1.42
2019-03-22T06:42:46.899Z,1.32
2019-03-22T06:45:17.908Z,1.65
2019-03-22T06:47:46.848Z,1.60
2019-03-22T06:50:15.920Z,1.40
2019-03-22T06:52:44.787Z,1.70
2019-03-22T06:55:13.782Z,1.60
2019-03-22T06:57:42.736Z,1.80
2019-03-22T07:00:13.768Z,1.65
2019-03-22T07:02:42.666Z,1.75
2019-03-22T07:05:13.649Z,1.35
2019-03-22T07:07:42.333Z,1.20
2019-03-22T07:10:12.102Z,1.30
2019-03-22T07:12:41.079Z,1.70
2019-03-22T07:15:10.190Z,1.80
2019-03-22T07:17:39.087Z,2.15
2019-03-22T07:20:08.581Z,1.80
2019-03-22T07:22:37.526Z,1.90
2019-03-22T07:25:07.655Z,2.08
2019-03-22T07:27:36.882Z,1.57
2019-03-22T07:30:19.021Z,1.72
2019-03-22T07:32:45.431Z,1.60
2019-03-22T07:35:14.417Z,1.98
2019-03-22T07:37:43.298Z,1.87
2019-03-22T07:40:13.644Z,1.62
2019-03-22T07:42:42.512Z,1.72
2019-03-22T07:45:11.975Z,1.45
2019-03-22T07:47:40.912Z,1.60
2019-03-22T07:50:12.000Z,1.52
2019-03-22T07:52:41.004Z,1.98
2019-03-22T07:55:10.612Z,1.80
2019-03-22T07:57:39.504Z,1.55
2019-03-22T08:00:10.840Z,1.72
2019-03-22T08:02:39.852Z,1.82
2019-03-22T08:05:08.813Z,1.75
2019-03-22T08:07:38.034Z,1.92
2019-03-22T08:10:08.619Z,2.00
2019-03-22T08:12:37.719Z,1.67
2019-03-22T08:15:08.524Z,1.57
2019-03-22T08:17:37.643Z,1.92
2019-03-22T08:20:09.312Z,1.70
2019-03-22T08:22:38.259Z,2.00
2019-03-22T08:25:07.535Z,2.00
2019-03-22T08:27:36.445Z,1.77
2019-03-22T08:30:06.751Z,1.72
2019-03-22T08:32:36.916Z,1.75
2019-03-22T08:35:05.904Z,2.12
2019-03-22T08:37:34.820Z,1.92
2019-03-22T08:40:05.239Z,3.02
2019-03-22T08:42:34.112Z,1.80
2019-03-22T08:45:03.018Z,2.22
2019-03-22T08:47:34.241Z,1.80
2019-03-22T08:50:02.482Z,2.00
2019-03-22T08:52:32.461Z,1.85
2019-03-22T08:55:02.047Z,2.15
2019-03-22T08:57:31.148Z,2.08
2019-03-22T08:59:59.984Z,1.52
2019-03-22T09:02:30.037Z,1.72
2019-03-22T09:04:58.926Z,2.10
2019-03-22T09:07:28.082Z,1.62
2019-03-22T09:09:57.025Z,1.87
2019-03-22T09:12:27.011Z,2.47
2019-03-22T09:14:56.240Z,2.00
2019-03-22T09:17:25.158Z,2.37
2019-03-22T09:19:54.232Z,2.30
2019-03-22T09:22:23.107Z,2.62
2019-03-22T09:24:52.173Z,2.27
2019-03-22T09:27:21.108Z,2.05
2019-03-22T09:29:50.106Z,1.65
2019-03-22T09:32:20.164Z,2.40
2019-03-22T09:34:49.063Z,1.70
2019-03-22T09:37:17.990Z,1.62
2019-03-22T09:39:46.866Z,1.10
2019-03-22T09:42:17.041Z,1.02
2019-03-22T09:44:46.007Z,0.85
2019-03-22T09:47:16.519Z,0.80
2019-03-22T09:49:45.651Z,0.72
2019-03-22T09:52:15.703Z,1.00
2019-03-22T09:54:44.640Z,0.85
2019-03-22T09:57:14.102Z,1.72
2019-03-22T09:59:43.016Z,1.22
2019-03-22T10:02:11.972Z,1.25
2019-03-22T10:04:40.948Z,1.20
2019-03-22T10:07:09.829Z,1.40
2019-03-22T10:09:38.759Z,1.20
2019-03-22T10:12:07.703Z,1.30
2019-03-22T10:14:36.617Z,0.90
2019-03-22T10:17:05.603Z,1.00
2019-03-22T10:19:34.616Z,0.72
2019-03-22T10:22:04.359Z,0.85
2019-03-22T10:24:33.223Z,0.93
2019-03-22T10:27:05.005Z,1.10
2019-03-22T10:29:32.948Z,0.70
2019-03-22T10:32:01.856Z,0.70
2019-03-22T10:34:30.708Z,0.80
2019-03-22T10:36:59.908Z,0.78
2019-03-22T10:39:28.840Z,1.00
2019-03-22T10:41:57.905Z,0.90
2019-03-22T10:44:27.071Z,0.80
2019-03-22T10:46:55.991Z,1.05
2019-03-22T10:49:24.951Z,1.00
2019-03-22T10:51:57.715Z,0.90
2019-03-22T10:54:24.370Z,0.80
2019-03-22T10:56:53.306Z,1.00
2019-03-22T10:59:22.210Z,0.70
2019-03-22T11:02:02.711Z,0.72
2019-03-22T11:04:21.669Z,0.90
2019-03-22T11:06:53.294Z,0.90
2019-03-22T11:09:22.161Z,0.70
2019-03-22T11:11:51.106Z,0.80
2019-03-22T11:14:19.988Z,0.70
2019-03-22T11:16:49.101Z,0.85
2019-03-22T11:19:18.044Z,1.10
2019-03-22T11:21:46.928Z,1.10
2019-03-22T11:24:15.934Z,0.80
2019-03-22T11:26:44.867Z,0.80
2019-03-22T11:29:14.016Z,0.78
2019-03-22T11:31:42.900Z,0.70
2019-03-22T11:34:11.791Z,0.70
2019-03-22T11:36:40.731Z,0.80
2019-03-22T11:39:15.541Z,0.60
2019-03-22T11:41:42.137Z,0.85
2019-03-22T11:44:11.259Z,0.80
2019-03-22T11:46:40.246Z,0.90
2019-03-22T11:49:09.233Z,0.80
2019-03-22T11:51:40.181Z,0.90
2019-03-22T11:54:08.859Z,1.15
2019-03-22T11:56:37.788Z,0.60
2019-03-22T11:59:12.357Z,0.75
2019-03-22T12:01:43.451Z,0.90
2019-03-22T12:04:19.994Z,0.90
2019-03-22T12:06:48.884Z,0.70
2019-03-22T12:09:17.777Z,0.70
2019-03-22T12:11:46.693Z,1.10
2019-03-22T12:14:15.566Z,0.70
2019-03-22T12:16:44.499Z,0.80
2019-03-22T12:19:13.434Z,0.82
2019-03-22T12:21:42.311Z,0.90
2019-03-22T12:24:11.377Z,0.85
2019-03-22T12:26:40.268Z,0.65
2019-03-22T12:29:09.141Z,0.90
2019-03-22T12:31:38.074Z,1.32
2019-03-22T12:34:06.957Z,0.80
2019-03-22T12:36:36.112Z,0.70
2019-03-22T12:39:07.338Z,1.10
2019-03-22T12:41:36.244Z,0.85
2019-03-22T12:44:05.628Z,0.85
2019-03-22T12:46:34.662Z,0.60
2019-03-22T12:49:03.548Z,0.60
2019-03-22T12:51:35.525Z,0.75
2019-03-22T12:54:04.776Z,0.90
2019-03-22T12:56:33.759Z,0.57
2019-03-22T12:59:02.651Z,0.80
2019-03-22T13:01:31.597Z,0.82
2019-03-22T13:04:00.490Z,1.07
2019-03-22T13:06:29.483Z,0.60
2019-03-22T13:08:58.449Z,0.80
2019-03-22T13:11:27.368Z,0.50
2019-03-22T13:13:56.242Z,0.88
2019-03-22T13:16:25.188Z,0.70
2019-03-22T13:18:54.407Z,0.70
2019-03-22T13:21:23.309Z,1.00
2019-03-22T13:23:52.248Z,0.90
2019-03-22T13:26:21.116Z,1.12
2019-03-22T13:28:54.131Z,0.80
2019-03-22T13:31:23.070Z,0.95
2019-03-22T13:33:51.956Z,1.00
2019-03-22T13:36:20.892Z,0.85
2019-03-22T13:38:49.789Z,1.05
2019-03-22T13:41:18.671Z,0.95
2019-03-22T13:43:47.620Z,0.90
2019-03-22T13:46:16.517Z,1.00
2019-03-22T13:48:46.843Z,0.80
2019-03-22T13:51:15.779Z,0.80
2019-03-22T13:53:44.671Z,0.70
2019-03-22T13:56:13.650Z,0.80
2019-03-22T13:58:42.523Z,0.90
2019-03-22T14:01:14.466Z,0.60
2019-03-22T14:03:43.504Z,0.57
2019-03-22T14:06:12.358Z,1.00
2019-03-22T14:08:41.287Z,1.00
2019-03-22T14:11:10.276Z,0.82
2019-03-22T14:13:42.401Z,0.40
2019-03-22T14:16:11.413Z,0.40
2019-03-22T14:18:40.287Z,0.53
2019-03-22T14:21:09.222Z,0.50
2019-03-22T14:23:38.172Z,0.70
2019-03-22T14:26:07.107Z,0.47
2019-03-22T14:28:36.064Z,0.75
2019-03-22T14:31:05.060Z,0.30
2019-03-22T14:33:33.930Z,0.62
2019-03-22T14:36:02.855Z,0.50
2019-03-22T14:38:31.791Z,0.55
2019-03-22T14:41:00.662Z,0.30
2019-03-22T14:43:29.594Z,0.30
2019-03-22T14:45:58.501Z,0.30
2019-03-22T14:48:27.429Z,0.42
2019-03-22T14:50:56.426Z,0.40
2019-03-22T14:53:25.372Z,0.40
2019-03-22T14:55:54.256Z,0.20
2019-03-22T14:58:23.206Z,0.25
2019-03-22T15:00:52.098Z,0.33
2019-03-22T15:03:28.921Z,0.40
2019-03-22T15:05:58.034Z,0.30
2019-03-22T15:08:26.920Z,0.47
2019-03-22T15:10:55.889Z,0.42
2019-03-22T15:13:44.645Z,0.60
2019-03-22T15:16:31.295Z,0.75
2019-03-22T15:19:01.739Z,0.78
2019-03-22T15:21:44.536Z,0.90
2019-03-22T15:24:30.078Z,0.47
2019-03-22T15:27:09.619Z,0.20
2019-03-22T15:29:55.265Z,1.10
2019-03-22T15:32:34.912Z,1.98
2019-03-22T15:35:08.671Z,0.70
2019-03-22T15:37:54.405Z,0.80
2019-03-22T15:40:23.655Z,0.40
2019-03-22T15:42:52.522Z,0.37
2019-03-22T15:45:21.457Z,0.45
2019-03-22T15:47:50.454Z,0.30
2019-03-22T15:50:19.526Z,0.37
2019-03-22T15:52:48.708Z,0.57
2019-03-22T15:55:17.690Z,0.40
2019-03-22T15:57:46.730Z,0.70
2019-03-22T16:00:18.657Z,0.70
2019-03-22T16:02:47.648Z,0.60
2019-03-22T16:05:16.888Z,0.72
2019-03-22T16:07:45.756Z,0.62
2019-03-22T16:10:15.953Z,0.40
2019-03-22T16:12:44.958Z,0.50
2019-03-22T16:15:14.323Z,0.60
2019-03-22T16:17:43.199Z,0.85
2019-03-22T16:20:14.633Z,1.17
2019-03-22T16:22:43.540Z,1.65
2019-03-22T16:25:12.629Z,1.22
2019-03-22T16:27:41.809Z,1.27
2019-03-22T16:30:15.135Z,1.32
2019-03-22T16:32:43.998Z,1.00
2019-03-22T16:35:13.914Z,1.55
2019-03-22T16:37:42.806Z,1.45
2019-03-22T16:40:12.583Z,1.47
2019-03-22T16:42:41.506Z,1.60
2019-03-22T16:45:11.888Z,1.72
2019-03-22T16:47:40.784Z,1.40
2019-03-22T16:50:18.481Z,1.27
2019-03-22T16:52:47.366Z,1.70
2019-03-22T16:55:16.255Z,1.50
2019-03-22T16:57:45.183Z,1.27
2019-03-22T17:00:14.520Z,1.45
2019-03-22T17:02:43.389Z,1.42
2019-03-22T17:05:12.529Z,1.20
2019-03-22T17:07:41.461Z,1.52
2019-03-22T17:10:10.540Z,1.60
2019-03-22T17:12:39.513Z,1.75
2019-03-22T17:15:08.997Z,1.32
2019-03-22T17:17:37.907Z,1.72
2019-03-22T17:20:08.008Z,1.27
2019-03-22T17:22:37.052Z,1.50
2019-03-22T17:25:07.753Z,1.40
2019-03-22T17:27:36.713Z,1.17
2019-03-22T17:30:08.428Z,1.60
2019-03-22T17:32:40.981Z,1.32
2019-03-22T17:35:10.600Z,1.25
2019-03-22T17:37:39.573Z,1.10
2019-03-22T17:40:09.762Z,1.00
2019-03-22T17:42:39.004Z,0.98
2019-03-22T17:45:10.478Z,1.20
2019-03-22T17:47:39.367Z,1.30
2019-03-22T17:50:10.000Z,1.10
2019-03-22T17:52:38.983Z,1.45
2019-03-22T17:55:09.255Z,1.52
2019-03-22T17:57:38.148Z,1.98
2019-03-22T18:00:17.169Z,2.30
2019-03-22T18:02:46.068Z,1.90
2019-03-22T18:05:15.113Z,1.50
2019-03-22T18:07:44.104Z,1.45
2019-03-22T18:10:13.807Z,1.98
2019-03-22T18:12:42.699Z,1.72
2019-03-22T18:15:13.321Z,1.30
2019-03-22T18:17:42.226Z,1.70
2019-03-22T18:20:13.503Z,1.82
2019-03-22T18:22:42.387Z,1.87
2019-03-22T18:25:12.644Z,1.90
2019-03-22T18:27:41.510Z,1.90
2019-03-22T18:30:15.189Z,2.08
2019-03-22T18:32:44.167Z,2.60
2019-03-22T18:35:14.028Z,2.52
2019-03-22T18:37:42.922Z,2.00
2019-03-22T18:40:31.112Z,2.08
2019-03-22T18:43:00.319Z,2.10
2019-03-22T18:45:29.284Z,2.50
2019-03-22T18:47:58.252Z,2.02
2019-03-22T18:50:27.377Z,1.82
2019-03-22T18:52:56.360Z,2.02
2019-03-22T18:55:26.046Z,2.58
2019-03-22T18:57:55.004Z,2.12
2019-03-22T19:00:25.606Z,2.20
2019-03-22T19:02:54.526Z,2.83
2019-03-22T19:05:23.446Z,2.90
2019-03-22T19:07:52.386Z,2.70
2019-03-22T19:10:21.471Z,3.00
2019-03-22T19:12:50.366Z,2.90
2019-03-22T19:15:20.282Z,2.52
2019-03-22T19:17:49.143Z,2.77
2019-03-22T19:20:18.474Z,2.85
2019-03-22T19:22:47.468Z,2.65
2019-03-22T19:25:16.546Z,2.72
2019-03-22T19:27:45.576Z,3.50
2019-03-22T19:30:16.315Z,3.05
2019-03-22T19:32:45.279Z,3.37
2019-03-22T19:35:14.898Z,2.77
2019-03-22T19:37:43.814Z,2.72
2019-03-22T19:40:15.854Z,2.80
2019-03-22T19:42:44.787Z,3.05
2019-03-22T19:45:16.773Z,3.00
2019-03-22T19:47:46.259Z,2.85
2019-03-22T19:50:16.749Z,3.12
2019-03-22T19:52:45.823Z,3.90
2019-03-22T19:55:15.495Z,3.12
2019-03-22T19:57:45.421Z,3.05
2019-03-22T20:00:19.601Z,2.92
2019-03-22T20:02:49.359Z,3.72
2019-03-22T20:05:32.213Z,3.65
2019-03-22T20:08:02.626Z,3.77
2019-03-22T20:10:32.134Z,3.50
2019-03-22T20:13:01.532Z,3.65
2019-03-22T20:15:30.719Z,4.12
2019-03-22T20:17:59.927Z,3.67
2019-03-22T20:20:29.240Z,3.83
2019-03-22T20:22:58.437Z,3.30
2019-03-22T20:25:27.448Z,3.92
2019-03-22T20:27:56.454Z,3.52
2019-03-22T20:30:25.573Z,3.67
2019-03-22T20:32:54.443Z,3.17
2019-03-22T20:35:23.554Z,3.20
2019-03-22T20:37:52.430Z,3.55
2019-03-22T20:40:21.750Z,3.55
2019-03-22T20:42:50.820Z,3.30
2019-03-22T20:45:24.113Z,2.60
2019-03-22T20:47:50.270Z,2.75
2019-03-22T20:50:19.286Z,2.80
2019-03-22T20:52:48.216Z,2.33
2019-03-22T20:55:17.959Z,2.00
2019-03-22T20:57:46.936Z,2.05
2019-03-22T21:00:18.222Z,1.70
2019-03-22T21:02:47.189Z,1.72
2019-03-22T21:05:26.433Z,1.77
2019-03-22T21:07:47.573Z,1.77
2019-03-22T21:10:16.655Z,1.72
2019-03-22T21:12:45.710Z,1.47
2019-03-22T21:15:23.952Z,1.72
2019-03-22T21:17:45.644Z,1.47
2019-03-22T21:20:14.979Z,1.30
2019-03-22T21:22:43.834Z,1.30
2019-03-22T21:25:13.212Z,1.50
2019-03-22T21:27:42.241Z,1.80
2019-03-22T21:30:15.331Z,1.90
2019-03-22T21:32:45.441Z,1.87
2019-03-22T21:35:22.377Z,1.72
2019-03-22T21:37:46.197Z,2.10
2019-03-22T21:40:15.540Z,1.92
2019-03-22T21:42:44.533Z,2.17
2019-03-22T21:45:13.516Z,1.67
2019-03-22T21:47:42.398Z,2.77
2019-03-22T21:50:11.331Z,2.55
2019-03-22T21:52:40.246Z,2.25
2019-03-22T21:55:09.645Z,2.77
2019-03-22T21:57:40.240Z,2.30
2019-03-22T22:00:14.727Z,2.62
2019-03-22T22:02:43.633Z,2.40
2019-03-22T22:05:13.087Z,2.62
2019-03-22T22:07:41.975Z,2.95
2019-03-22T22:10:11.820Z,2.58
2019-03-22T22:12:40.730Z,2.55
2019-03-22T22:15:12.066Z,2.92
2019-03-22T22:17:42.405Z,2.77
2019-03-22T22:20:11.807Z,2.70
2019-03-22T22:22:41.480Z,2.67
2019-03-22T22:25:10.601Z,3.02
2019-03-22T22:27:39.549Z,3.08
2019-03-22T22:30:11.439Z,2.40
2019-03-22T22:32:40.382Z,2.65
2019-03-22T22:35:09.789Z,2.62
2019-03-22T22:37:38.735Z,2.83
2019-03-22T22:40:09.652Z,2.72
2019-03-22T22:42:38.766Z,2.35
2019-03-22T22:45:09.750Z,2.72
2019-03-22T22:47:39.070Z,2.42
2019-03-22T22:50:10.657Z,2.80
2019-03-22T22:52:39.622Z,2.10
2019-03-22T22:55:09.707Z,2.40
2019-03-22T22:57:38.731Z,2.83
2019-03-22T23:00:19.415Z,2.67
2019-03-22T23:02:48.500Z,2.20
2019-03-22T23:05:17.390Z,2.90
2019-03-22T23:07:46.476Z,2.47
2019-03-22T23:10:15.461Z,2.75
2019-03-22T23:12:44.520Z,2.50
2019-03-22T23:15:13.413Z,2.52
2019-03-22T23:17:42.310Z,2.33
2019-03-22T23:20:12.118Z,2.33
2019-03-22T23:22:43.994Z,2.70
2019-03-22T23:25:12.963Z,2.17
2019-03-22T23:27:41.984Z,2.50
2019-03-22T23:30:13.073Z,2.75
2019-03-22T23:32:42.068Z,2.42
2019-03-22T23:35:11.443Z,3.05
2019-03-22T23:37:40.414Z,2.45
2019-03-22T23:40:10.034Z,3.00
2019-03-22T23:42:39.073Z,1.95
2019-03-22T23:45:09.801Z,2.55
2019-03-22T23:47:38.723Z,2.35
2019-03-22T23:50:08.450Z,2.45
2019-03-22T23:52:39.477Z,2.58
2019-03-22T23:55:09.110Z,2.42
2019-03-22T23:57:38.165Z,1.75
